Time;durP1;ratioP1;P1;durP2;ratioP2;P2;SDS_P1;SDS_P2;PMS_P1;PMS_P2;Temp;Humidity;BMP_temperature;BMP_pressure;BME280_temperature;BME280_humidity;BME280_pressure;Samples;Min_cycle;Max_cycle;Signal;HPM_P1;HPM_P2
2024/03/06 00:00:41;;;;;;;54.50;29.00;;;;;;;5.84;100.00;100916.84;106588;1251;72761;-87
2024/03/06 00:03:09;;;;;;;48.80;26.70;;;;;;;5.80;100.00;100920.92;106456;1253;61267;-88
2024/03/06 00:05:37;;;;;;;46.90;26.10;;;;;;;5.77;100.00;100920.80;106411;1253;61376;-88
2024/03/06 00:08:05;;;;;;;51.20;26.40;;;;;;;5.73;100.00;100920.76;106478;1253;74591;-88
2024/03/06 00:10:33;;;;;;;49.10;26.10;;;;;;;5.69;100.00;100922.41;106355;1253;68545;-88
2024/03/06 00:13:00;;;;;;;50.30;27.00;;;;;;;5.67;100.00;100923.45;106411;1257;71469;-89
2024/03/06 00:15:28;;;;;;;49.20;26.10;;;;;;;5.64;100.00;100929.17;106243;1253;61271;-87
2024/03/06 00:17:56;;;;;;;50.80;27.10;;;;;;;5.60;100.00;100927.41;106215;1256;61153;-87
2024/03/06 00:20:23;;;;;;;46.50;24.50;;;;;;;5.65;100.00;100924.65;106255;1256;74987;-88
2024/03/06 00:22:51;;;;;;;47.50;23.90;;;;;;;5.58;100.00;100920.70;108058;1253;67241;-87
2024/03/06 00:25:19;;;;;;;47.70;25.60;;;;;;;5.59;100.00;100922.11;106718;1253;72686;-88
2024/03/06 00:27:47;;;;;;;45.90;24.80;;;;;;;5.60;100.00;100921.06;106353;1253;61380;-87
2024/03/06 00:30:15;;;;;;;48.30;26.20;;;;;;;5.63;100.00;100922.20;106563;1251;61174;-89
2024/03/06 00:32:43;;;;;;;45.30;24.50;;;;;;;5.61;100.00;100921.46;106439;1251;75125;-88
2024/03/06 00:35:11;;;;;;;39.00;21.00;;;;;;;5.61;100.00;100922.23;106432;1251;69841;-87
2024/03/06 00:37:39;;;;;;;46.00;23.20;;;;;;;5.57;100.00;100921.60;106282;1253;71129;-87
2024/03/06 00:40:08;;;;;;;43.40;22.40;;;;;;;5.52;100.00;100924.12;106380;1256;61312;-87
2024/03/06 00:42:37;;;;;;;44.70;23.70;;;;;;;5.50;100.00;100927.32;106265;1253;61161;-85
2024/03/06 00:45:05;;;;;;;48.80;23.00;;;;;;;5.52;100.00;100933.40;107021;1251;74661;-86
2024/03/06 00:47:34;;;;;;;36.30;18.10;;;;;;;5.51;100.00;100934.77;106378;1251;68327;-86
2024/03/06 00:50:02;;;;;;;30.60;15.70;;;;;;;5.57;100.00;100932.54;106440;1256;72840;-86
2024/03/06 00:52:30;;;;;;;34.40;15.90;;;;;;;5.63;100.00;100933.71;106441;1253;61371;-87
2024/03/06 00:54:58;;;;;;;29.60;14.70;;;;;;;5.66;100.00;100934.98;106402;1251;61436;-88
2024/03/06 00:57:25;;;;;;;29.10;12.80;;;;;;;5.71;100.00;100937.16;106255;1251;74613;-87
2024/03/06 00:59:53;;;;;;;27.50;13.40;;;;;;;5.82;100.00;100935.36;106266;1251;67237;-87
2024/03/06 01:02:21;;;;;;;36.40;16.70;;;;;;;5.83;100.00;100934.72;106892;1253;72228;-87
2024/03/06 01:04:49;;;;;;;29.40;15.20;;;;;;;5.87;100.00;100935.20;106436;1253;61236;-86
2024/03/06 01:07:17;;;;;;;27.60;13.40;;;;;;;5.99;100.00;100933.99;106405;1256;61240;-86
2024/03/06 01:09:44;;;;;;;31.60;15.00;;;;;;;6.07;100.00;100934.09;106277;1252;74944;-87
2024/03/06 01:12:12;;;;;;;27.70;13.90;;;;;;;6.10;100.00;100932.70;106303;1256;68702;-86
2024/03/06 01:14:40;;;;;;;24.90;13.10;;;;;;;6.13;100.00;100937.98;106451;1256;73078;-87
2024/03/06 01:17:07;;;;;;;26.10;14.40;;;;;;;6.19;100.00;100940.98;106966;1257;61341;-86
2024/03/06 01:19:35;;;;;;;35.00;15.80;;;;;;;6.22;100.00;100935.19;106744;1254;61353;-87
2024/03/06 01:22:03;;;;;;;31.00;13.10;;;;;;;6.27;100.00;100939.58;106452;1251;73833;-88
2024/03/06 01:24:31;;;;;;;28.50;15.30;;;;;;;6.28;100.00;100943.56;106331;1253;68508;-87
2024/03/06 01:27:02;;;;;;;33.30;14.80;;;;;;;6.25;100.00;100938.88;106541;1253;72449;-86
2024/03/06 01:29:30;;;;;;;48.70;20.80;;;;;;;6.25;100.00;100942.19;106377;1251;61670;-87
2024/03/06 01:32:00;;;;;;;49.30;20.10;;;;;;;6.23;100.00;100941.34;106584;1254;61278;-87
2024/03/06 01:34:28;;;;;;;65.90;26.50;;;;;;;6.25;100.00;100939.48;106479;1251;73747;-87
2024/03/06 01:36:56;;;;;;;36.10;17.10;;;;;;;6.25;100.00;100945.41;106489;1251;224798;-87
2024/03/06 01:39:24;;;;;;;40.90;18.00;;;;;;;6.28;100.00;100942.42;106799;1253;71152;-87
2024/03/06 01:41:51;;;;;;;42.30;19.20;;;;;;;6.31;100.00;100941.50;106544;1252;61290;-87
2024/03/06 01:44:19;;;;;;;31.40;14.40;;;;;;;6.31;100.00;100943.20;106637;1251;61327;-87
2024/03/06 01:46:47;;;;;;;33.30;17.10;;;;;;;6.25;100.00;100946.00;106775;1256;74608;-87
2024/03/06 01:49:15;;;;;;;39.40;18.50;;;;;;;6.27;100.00;100948.59;106367;1251;69356;-87
2024/03/06 01:51:56;;;;;;;34.40;15.90;;;;;;;6.27;100.00;100947.01;106273;1253;72685;-86
2024/03/06 01:54:23;;;;;;;29.40;14.80;;;;;;;6.23;100.00;100950.29;106431;1253;61312;-87
2024/03/06 01:56:51;;;;;;;29.00;14.60;;;;;;;6.23;100.00;100950.07;107780;1253;61393;-87
2024/03/06 01:59:20;;;;;;;24.30;13.40;;;;;;;6.24;100.00;100951.94;106536;1256;74675;-87
2024/03/06 02:02:02;;;;;;;28.70;14.00;;;;;;;6.26;100.00;100954.70;106605;1256;67184;-87
2024/03/06 02:04:31;;;;;;;25.50;13.40;;;;;;;6.25;100.00;100955.34;106563;1254;71167;-87
2024/03/06 02:06:59;;;;;;;29.70;13.90;;;;;;;6.20;100.00;100954.14;106330;1252;61354;-87
2024/03/06 02:09:26;;;;;;;31.00;14.30;;;;;;;6.17;100.00;100955.00;106593;1250;61266;-87
2024/03/06 02:11:54;;;;;;;27.20;14.80;;;;;;;6.17;100.00;100958.20;106379;1251;72270;-87
2024/03/06 02:14:22;;;;;;;48.80;22.00;;;;;;;6.22;100.00;100958.58;106805;1257;67292;-86
2024/03/06 02:16:49;;;;;;;37.90;18.80;;;;;;;6.22;100.00;100961.95;106501;1253;73134;-87
2024/03/06 02:19:17;;;;;;;35.50;16.60;;;;;;;6.18;100.00;100961.65;106578;1253;61274;-88
2024/03/06 02:21:45;;;;;;;36.80;17.40;;;;;;;6.20;100.00;100960.28;106590;1253;61266;-87
2024/03/06 02:24:14;;;;;;;37.40;17.40;;;;;;;6.16;100.00;100956.56;106609;1256;74644;-87
2024/03/06 02:26:42;;;;;;;37.10;16.90;;;;;;;6.04;100.00;100951.18;106601;1250;67082;-87
2024/03/06 02:29:10;;;;;;;37.90;17.30;;;;;;;6.03;100.00;100947.25;106706;1252;73034;-87
2024/03/06 02:31:39;;;;;;;34.60;16.40;;;;;;;6.03;100.00;100946.71;107212;1253;61327;-87
2024/03/06 02:34:07;;;;;;;36.10;17.00;;;;;;;5.98;100.00;100948.07;106380;1251;61162;-87
2024/03/06 02:36:35;;;;;;;33.90;16.40;;;;;;;5.93;100.00;100958.02;106570;1253;73385;-87
2024/03/06 02:39:08;;;;;;;34.60;16.70;;;;;;;5.88;100.00;100963.26;106620;1256;68425;-86
2024/03/06 02:41:36;;;;;;;51.30;21.60;;;;;;;5.78;100.00;100963.95;106483;1251;71141;-86
2024/03/06 02:44:04;;;;;;;40.30;18.90;;;;;;;5.76;100.00;100967.38;106564;1253;61267;-86
2024/03/06 02:46:33;;;;;;;55.70;23.00;;;;;;;5.78;100.00;100967.96;106408;1253;61221;-86
2024/03/06 02:49:01;;;;;;;71.50;29.50;;;;;;;5.83;100.00;100970.73;106627;1256;74560;-87
2024/03/06 02:51:28;;;;;;;39.30;19.30;;;;;;;5.79;100.00;100972.05;106390;1259;67763;-87
2024/03/06 02:53:56;;;;;;;42.60;20.90;;;;;;;5.77;100.00;100970.92;106392;1258;71451;-86
2024/03/06 02:56:24;;;;;;;43.40;20.10;;;;;;;5.73;100.00;100971.27;107650;1250;60951;-88
2024/03/06 02:58:52;;;;;;;31.30;15.20;;;;;;;5.72;100.00;100975.13;106522;1251;61402;-88
2024/03/06 03:01:19;;;;;;;23.50;12.80;;;;;;;5.76;100.00;100968.89;106468;1250;73400;-87
2024/03/06 03:03:47;;;;;;;22.70;11.50;;;;;;;5.74;100.00;100969.71;106623;1256;67456;-87
2024/03/06 03:06:15;;;;;;;26.00;12.60;;;;;;;5.75;100.00;100971.35;106524;1256;72647;-86
2024/03/06 03:08:43;;;;;;;24.90;12.00;;;;;;;5.75;100.00;100971.48;106615;1253;61458;-86
2024/03/06 03:11:10;;;;;;;23.90;11.60;;;;;;;5.77;100.00;100972.38;106456;1254;61257;-86
2024/03/06 03:13:39;;;;;;;22.70;11.70;;;;;;;5.80;100.00;100974.91;106848;1256;74674;-86
2024/03/06 03:16:07;;;;;;;21.50;12.60;;;;;;;5.82;100.00;100973.53;106443;1253;68388;-89
2024/03/06 03:18:35;;;;;;;26.60;12.60;;;;;;;5.85;100.00;100977.66;106508;1253;71789;-88
2024/03/06 03:21:03;;;;;;;27.70;14.10;;;;;;;5.85;100.00;100976.91;106349;1255;61298;-87
2024/03/06 03:23:30;;;;;;;23.30;11.80;;;;;;;5.81;100.00;100982.02;107228;1251;61164;-86
2024/03/06 03:25:58;;;;;;;22.30;11.70;;;;;;;5.81;100.00;100984.86;106429;1251;74822;-88
2024/03/06 03:28:27;;;;;;;23.60;13.20;;;;;;;5.80;100.00;100986.19;106481;1250;68346;-87
2024/03/06 03:30:54;;;;;;;24.80;13.90;;;;;;;5.80;100.00;100985.46;106621;1253;71392;-86
2024/03/06 03:33:22;;;;;;;32.10;15.50;;;;;;;5.81;100.00;100993.70;106594;1253;61359;-87
2024/03/06 03:35:50;;;;;;;31.20;15.00;;;;;;;5.82;100.00;100996.69;106589;1250;61350;-87
2024/03/06 03:38:18;;;;;;;29.80;14.30;;;;;;;5.82;100.00;100994.85;106634;1256;74642;-85
2024/03/06 03:40:45;;;;;;;29.90;14.70;;;;;;;5.81;100.00;100997.50;106934;1250;68455;-87
2024/03/06 03:43:13;;;;;;;21.40;11.60;;;;;;;5.76;100.00;101001.77;106549;1253;70389;-86
2024/03/06 03:45:41;;;;;;;22.80;12.40;;;;;;;5.76;100.00;101006.89;106598;1253;61311;-87
2024/03/06 03:48:08;;;;;;;22.40;11.40;;;;;;;5.76;100.00;101008.70;106594;1253;61279;-87
2024/03/06 03:50:36;;;;;;;27.80;13.10;;;;;;;5.76;100.00;101010.98;106622;1251;74778;-87
2024/03/06 03:53:04;;;;;;;21.00;11.30;;;;;;;5.76;100.00;101014.08;106560;1256;66785;-87
2024/03/06 03:55:32;;;;;;;25.10;13.20;;;;;;;5.66;100.00;101015.78;106682;1253;74434;-86
2024/03/06 03:57:59;;;;;;;23.90;13.40;;;;;;;5.58;100.00;101022.04;107494;1250;61276;-88
2024/03/06 04:00:27;;;;;;;24.60;14.20;;;;;;;5.58;100.00;101020.52;106501;1253;61375;-88
2024/03/06 04:02:55;;;;;;;22.80;12.10;;;;;;;5.55;100.00;101018.60;106427;1257;74711;-88
2024/03/06 04:05:23;;;;;;;24.70;12.60;;;;;;;5.52;100.00;101025.34;106649;1256;68380;-87
2024/03/06 04:07:50;;;;;;;26.50;11.90;;;;;;;5.58;100.00;101024.70;106521;1253;71400;-87
2024/03/06 04:10:18;;;;;;;29.70;13.50;;;;;;;5.63;100.00;101029.30;106545;1251;61429;-88
2024/03/06 04:12:46;;;;;;;29.00;13.90;;;;;;;5.67;100.00;101032.82;106978;1250;61179;-87
2024/03/06 04:15:14;;;;;;;36.10;15.10;;;;;;;5.67;100.00;101033.70;107536;1256;74676;-88
2024/03/06 04:17:41;;;;;;;30.90;13.60;;;;;;;5.64;100.00;101036.38;106800;1256;67166;-87
2024/03/06 04:20:11;;;;;;;32.30;14.10;;;;;;;5.65;100.00;101040.41;106564;1253;72471;-87
2024/03/06 04:22:40;;;;;;;29.00;12.70;;;;;;;5.64;100.00;101042.34;106646;1253;61858;-88
2024/03/06 04:25:09;;;;;;;22.30;11.60;;;;;;;5.60;100.00;101044.73;106754;1251;62991;-89
2024/03/06 04:27:37;;;;;;;23.80;11.00;;;;;;;5.60;100.00;101041.55;106325;1256;72451;-88
2024/03/06 04:30:05;;;;;;;25.80;12.80;;;;;;;5.57;100.00;101045.64;106477;1251;68523;-87
2024/03/06 04:32:33;;;;;;;23.50;11.90;;;;;;;5.53;100.00;101046.79;107467;1256;72671;-88
2024/03/06 04:35:01;;;;;;;22.60;11.30;;;;;;;5.49;100.00;101055.02;106572;1253;61153;-87
2024/03/06 04:37:30;;;;;;;25.40;11.90;;;;;;;5.48;100.00;101056.80;106683;1251;61320;-86
2024/03/06 04:39:58;;;;;;;25.20;11.90;;;;;;;5.46;100.00;101063.52;106439;1258;74692;-87
2024/03/06 04:42:26;;;;;;;35.30;13.40;;;;;;;5.48;100.00;101068.39;106740;1256;69047;-88
2024/03/06 04:44:53;;;;;;;26.70;11.10;;;;;;;5.58;100.00;101072.69;106503;1256;73146;-87
2024/03/06 04:47:21;;;;;;;33.40;13.50;;;;;;;5.59;100.00;101075.02;106607;1254;61354;-87
2024/03/06 04:49:49;;;;;;;32.50;13.60;;;;;;;5.56;100.00;101074.73;107336;1252;61770;-87
2024/03/06 04:52:17;;;;;;;28.30;12.30;;;;;;;5.52;100.00;101078.21;106584;1250;73445;-89
2024/03/06 04:54:45;;;;;;;31.30;12.80;;;;;;;5.51;100.00;101080.14;106310;1257;67227;-89
2024/03/06 04:57:13;;;;;;;29.00;11.70;;;;;;;5.48;100.00;101077.67;106610;1253;72676;-87
2024/03/06 04:59:41;;;;;;;38.00;13.60;;;;;;;5.50;100.00;101084.70;106590;1253;59338;-89
2024/03/06 05:02:08;;;;;;;31.60;12.70;;;;;;;5.46;100.00;101086.30;106619;1258;60953;-88
2024/03/06 05:04:36;;;;;;;28.00;11.00;;;;;;;5.42;100.00;101089.08;106861;1250;74576;-88
2024/03/06 05:07:21;;;;;;;42.30;16.70;;;;;;;5.47;100.00;101089.23;106575;1250;67136;-87
2024/03/06 05:10:07;;;;;;;28.70;13.00;;;;;;;5.44;100.00;101093.77;106429;1254;72496;-87
2024/03/06 05:12:53;;;;;;;25.90;10.70;;;;;;;5.43;100.00;101093.03;106369;1260;61208;-88
2024/03/06 05:15:39;;;;;;;38.90;14.30;;;;;;;5.41;100.00;101096.14;106642;1251;61258;-88
2024/03/06 05:18:24;;;;;;;33.50;13.20;;;;;;;5.36;100.00;101099.84;106360;1257;74917;-87
2024/03/06 05:21:09;;;;;;;31.00;11.70;;;;;;;5.38;100.00;101099.18;106835;1253;67433;-89
2024/03/06 05:23:54;;;;;;;38.60;15.60;;;;;;;5.37;100.00;101103.06;106191;1251;72644;-89
2024/03/06 05:26:39;;;;;;;27.50;12.60;;;;;;;5.36;100.00;101103.54;106437;1253;61716;-87
2024/03/06 05:29:25;;;;;;;24.40;12.90;;;;;;;5.36;100.00;101104.38;106472;1254;61311;-89
2024/03/06 05:32:10;;;;;;;28.10;13.70;;;;;;;5.31;100.00;101108.48;106567;1256;74633;-89
2024/03/06 05:34:55;;;;;;;30.40;15.30;;;;;;;5.34;100.00;101111.45;106490;1250;68766;-89
2024/03/06 05:37:40;;;;;;;31.10;15.40;;;;;;;5.37;100.00;101112.12;106711;1259;73021;-87
2024/03/06 05:40:25;;;;;;;30.70;16.10;;;;;;;5.34;100.00;101117.58;107041;1253;59945;-85
2024/03/06 05:43:11;;;;;;;30.10;15.60;;;;;;;5.37;100.00;101118.41;106807;1253;61309;-87
2024/03/06 05:45:55;;;;;;;30.40;14.90;;;;;;;5.38;100.00;101118.40;106475;1256;74649;-86
2024/03/06 05:48:41;;;;;;;38.40;17.50;;;;;;;5.37;100.00;101122.42;106486;1257;67224;-88
2024/03/06 05:51:26;;;;;;;38.40;18.60;;;;;;;5.36;100.00;101126.68;106865;1257;71458;-89
2024/03/06 05:54:11;;;;;;;46.40;20.20;;;;;;;5.35;100.00;101127.08;106373;1258;61326;-87
2024/03/06 05:56:56;;;;;;;35.10;18.10;;;;;;;5.36;100.00;101125.68;106509;1251;61285;-85
2024/03/06 05:59:41;;;;;;;33.90;18.70;;;;;;;5.35;100.00;101128.86;106470;1257;74669;-88
2024/03/06 06:02:10;;;;;;;36.40;17.40;;;;;;;5.36;100.00;101131.48;106560;1251;68537;-89
2024/03/06 06:04:37;;;;;;;41.00;20.80;;;;;;;5.36;100.00;101137.40;106469;1250;71452;-86
2024/03/06 06:07:18;;;;;;;40.00;20.90;;;;;;;5.39;100.00;101141.73;108261;1253;60883;-87
2024/03/06 06:09:45;;;;;;;40.10;19.90;;;;;;;5.43;100.00;101147.03;106471;1253;61348;-86
2024/03/06 06:12:13;;;;;;;40.10;20.20;;;;;;;5.41;100.00;101150.81;106368;1250;77124;-86
2024/03/06 06:14:41;;;;;;;37.00;20.30;;;;;;;5.37;100.00;101152.06;106348;1250;67093;-89
2024/03/06 06:17:09;;;;;;;40.90;20.60;;;;;;;5.37;100.00;101153.10;106445;1256;74933;-87
2024/03/06 06:19:37;;;;;;;34.80;19.90;;;;;;;5.37;100.00;101153.87;106565;1256;61294;-90
2024/03/06 06:22:05;;;;;;;41.70;21.00;;;;;;;5.43;100.00;101156.70;106517;1260;61314;-88
2024/03/06 06:24:32;;;;;;;42.10;20.00;;;;;;;5.39;100.00;101159.29;106300;1260;74664;-89
2024/03/06 06:27:00;;;;;;;51.60;25.30;;;;;;;5.38;100.00;101160.05;106534;1256;67158;-88
2024/03/06 06:29:29;;;;;;;57.50;24.70;;;;;;;5.37;100.00;101164.61;106313;1253;72696;-88
2024/03/06 06:31:57;;;;;;;46.90;21.20;;;;;;;5.37;100.00;101167.73;106350;1254;61234;-87
2024/03/06 06:34:27;;;;;;;45.80;21.60;;;;;;;5.33;100.00;101166.95;106296;1253;61279;-89
2024/03/06 06:36:55;;;;;;;34.70;18.50;;;;;;;5.27;100.00;101172.91;106471;1251;73388;-86
2024/03/06 06:39:24;;;;;;;39.90;19.20;;;;;;;5.18;100.00;101175.30;106641;1260;67135;-87
2024/03/06 06:41:51;;;;;;;38.10;17.60;;;;;;;5.08;100.00;101176.42;106531;1254;72696;-87
2024/03/06 06:44:19;;;;;;;38.60;19.10;;;;;;;5.12;100.00;101177.08;106579;1253;61273;-86
2024/03/06 06:46:47;;;;;;;32.80;17.40;;;;;;;5.11;100.00;101180.20;106641;1253;61159;-85
2024/03/06 06:49:14;;;;;;;36.90;18.10;;;;;;;5.04;100.00;101185.25;106594;1256;76953;-86
2024/03/06 06:51:42;;;;;;;38.20;20.40;;;;;;;5.06;100.00;101178.64;106649;1250;70964;-86
2024/03/06 06:54:10;;;;;;;34.00;17.90;;;;;;;5.09;100.00;101183.05;107311;1254;73935;-86
2024/03/06 06:56:37;;;;;;;35.70;17.40;;;;;;;5.16;100.00;101188.08;106450;1256;61373;-86
2024/03/06 06:59:05;;;;;;;37.90;18.60;;;;;;;5.15;100.00;101192.03;106445;1251;61400;-85
2024/03/06 07:01:33;;;;;;;34.50;17.30;;;;;;;5.27;100.00;101184.79;106636;1256;76605;-87
2024/03/06 07:04:03;;;;;;;32.50;17.00;;;;;;;5.37;100.00;101188.05;106309;1251;69003;-85
2024/03/06 07:06:31;;;;;;;29.30;15.90;;;;;;;5.42;100.00;101188.69;106485;1251;73914;-85
2024/03/06 07:08:59;;;;;;;37.20;18.10;;;;;;;5.44;100.00;101192.34;107168;1257;61300;-87
2024/03/06 07:11:26;;;;;;;34.10;17.30;;;;;;;5.41;100.00;101191.05;106404;1256;61333;-87
2024/03/06 07:13:54;;;;;;;32.80;17.40;;;;;;;5.43;100.00;101194.23;106651;1251;74578;-86
2024/03/06 07:16:22;;;;;;;29.50;15.80;;;;;;;5.45;100.00;101197.29;106537;1256;71117;-84
2024/03/06 07:18:50;;;;;;;32.40;16.10;;;;;;;5.46;100.00;101195.14;106580;1254;73599;-89
2024/03/06 07:21:18;;;;;;;30.70;16.10;;;;;;;5.52;100.00;101199.16;106401;1254;62120;-86
2024/03/06 07:23:46;;;;;;;31.20;17.40;;;;;;;5.52;100.00;101201.77;106563;1256;61584;-87
2024/03/06 07:26:14;;;;;;;37.00;18.00;;;;;;;5.55;100.00;101205.02;106705;1253;73184;-87
2024/03/06 07:28:42;;;;;;;34.90;17.50;;;;;;;5.55;100.00;101205.17;106666;1254;70754;-86
2024/03/06 07:31:10;;;;;;;33.80;17.20;;;;;;;5.63;100.00;101209.95;106431;1253;73833;-84
2024/03/06 07:33:38;;;;;;;33.00;18.00;;;;;;;5.73;100.00;101209.95;106402;1256;61553;-87
2024/03/06 07:36:06;;;;;;;35.30;18.70;;;;;;;5.72;100.00;101210.90;106408;1253;62251;-87
2024/03/06 07:38:34;;;;;;;36.70;18.80;;;;;;;5.70;100.00;101211.32;106486;1256;76845;-85
2024/03/06 07:41:02;;;;;;;37.00;19.40;;;;;;;5.73;100.00;101216.80;106767;1251;68504;-87
2024/03/06 07:43:29;;;;;;;37.40;18.80;;;;;;;5.73;100.00;101218.35;108872;1253;73659;-86
2024/03/06 07:50:24;;;;;;;40.30;20.10;;;;;;;5.68;100.00;101222.41;106410;1257;61320;-85
2024/03/06 07:53:06;;;;;;;33.30;18.70;;;;;;;5.75;100.00;101224.82;106333;1257;75906;-86
2024/03/06 07:55:41;;;;;;;34.80;19.40;;;;;;;5.81;100.00;101229.66;107828;1257;70945;-86
2024/03/06 07:58:16;;;;;;;41.30;19.40;;;;;;;5.88;100.00;101231.41;106263;1253;73530;-87
2024/03/06 08:00:53;;;;;;;38.50;20.80;;;;;;;5.86;100.00;101229.69;106224;1257;61206;-85
2024/03/06 08:03:27;;;;;;;38.00;21.50;;;;;;;5.75;100.00;101230.34;106241;1256;61427;-87
2024/03/06 08:06:02;;;;;;;42.30;23.10;;;;;;;5.80;100.00;101233.70;106382;1251;76834;-86
2024/03/06 08:08:36;;;;;;;37.40;18.90;;;;;;;5.81;100.00;101235.46;106281;1257;70253;-87
2024/03/06 08:11:11;;;;;;;37.30;19.90;;;;;;;5.83;100.00;101238.33;106335;1254;74689;-86
2024/03/06 08:13:45;;;;;;;36.50;20.70;;;;;;;5.85;100.00;101231.66;106326;1257;61224;-87
2024/03/06 08:16:19;;;;;;;47.80;25.10;;;;;;;5.92;100.00;101237.05;106383;1251;61809;-86
2024/03/06 08:18:55;;;;;;;45.80;24.40;;;;;;;5.94;100.00;101237.02;106324;1256;75536;-85
2024/03/06 08:21:28;;;;;;;69.50;34.50;;;;;;;5.97;100.00;101242.34;106383;1250;69904;-86
2024/03/06 08:24:03;;;;;;;50.00;25.10;;;;;;;6.01;100.00;101241.20;106283;1253;73767;-86
2024/03/06 08:26:37;;;;;;;40.30;21.40;;;;;;;6.06;100.00;101242.84;106307;1252;62422;-86
2024/03/06 08:29:12;;;;;;;37.60;20.40;;;;;;;6.13;100.00;101243.71;108595;1250;61205;-87
2024/03/06 08:31:46;;;;;;;40.40;22.10;;;;;;;6.20;100.00;101245.11;107698;1255;75684;-86
2024/03/06 08:34:22;;;;;;;41.50;22.00;;;;;;;6.23;100.00;101242.86;106371;1252;69868;-87
2024/03/06 08:36:56;;;;;;;40.30;22.00;;;;;;;6.27;100.00;101236.66;106536;1258;73488;-86
2024/03/06 08:39:30;;;;;;;39.70;23.50;;;;;;;6.28;100.00;101239.86;106440;1255;61638;-87
2024/03/06 08:42:04;;;;;;;41.90;22.60;;;;;;;6.28;100.00;101236.77;106346;1257;60514;-86
2024/03/06 08:44:38;;;;;;;39.20;21.50;;;;;;;6.37;100.00;101238.30;106400;1256;76227;-87
2024/03/06 08:47:12;;;;;;;40.70;22.20;;;;;;;6.40;100.00;101237.83;106397;1258;70592;-86
2024/03/06 08:49:46;;;;;;;40.10;22.40;;;;;;;6.41;100.00;101241.20;106329;1252;74915;-88
2024/03/06 08:52:26;;;;;;;42.50;22.10;;;;;;;6.42;100.00;101239.02;106518;1254;61726;-87
2024/03/06 08:55:06;;;;;;;39.70;23.50;;;;;;;6.45;100.00;101239.52;106145;1260;61264;-87
2024/03/06 08:57:46;;;;;;;43.30;21.60;;;;;;;6.44;100.00;101240.99;106466;1256;74771;-87
2024/03/06 09:00:26;;;;;;;39.90;22.70;;;;;;;6.37;100.00;101243.02;106492;1254;70685;-85
2024/03/06 09:03:06;;;;;;;47.60;26.70;;;;;;;6.42;100.00;101244.95;106287;1251;75297;-86
2024/03/06 09:05:46;;;;;;;42.90;23.30;;;;;;;6.52;100.00;101242.63;106327;1257;62272;-88
2024/03/06 09:08:26;;;;;;;45.20;23.90;;;;;;;6.59;100.00;101251.71;106307;1253;62056;-86
2024/03/06 09:11:07;;;;;;;40.90;21.90;;;;;;;6.53;99.08;101250.96;106412;1258;76245;-87
2024/03/06 09:13:47;;;;;;;45.40;24.10;;;;;;;6.44;99.75;101254.11;106368;1257;70050;-86
2024/03/06 09:16:27;;;;;;;48.10;25.10;;;;;;;6.40;99.30;101258.34;106216;1254;75065;-85
2024/03/06 09:19:07;;;;;;;42.80;23.30;;;;;;;6.36;100.00;101259.70;106300;1258;61350;-86
2024/03/06 09:21:48;;;;;;;45.00;24.00;;;;;;;6.37;100.00;101259.35;106320;1251;61263;-86
2024/03/06 09:24:22;;;;;;;45.70;24.70;;;;;;;6.34;99.91;101259.61;106281;1257;76983;-87
2024/03/06 09:26:58;;;;;;;37.50;21.00;;;;;;;6.28;100.00;101259.23;106184;1260;69471;-87
2024/03/06 09:29:38;;;;;;;41.50;22.80;;;;;;;6.26;100.00;101260.73;106419;1254;72901;-85
2024/03/06 09:32:19;;;;;;;40.20;23.00;;;;;;;6.23;100.00;101260.50;106494;1254;61270;-88
2024/03/06 09:34:59;;;;;;;46.80;23.60;;;;;;;6.32;100.00;101258.47;106747;1257;61968;-87
2024/03/06 09:37:40;;;;;;;43.20;24.50;;;;;;;6.38;100.00;101253.45;106295;1255;76584;-87
2024/03/06 09:40:22;;;;;;;39.10;20.70;;;;;;;6.34;99.56;101254.77;106530;1254;70918;-87
2024/03/06 09:42:56;;;;;;;42.50;23.00;;;;;;;6.30;99.92;101259.34;106305;1251;74375;-86
2024/03/06 09:45:37;;;;;;;41.60;21.50;;;;;;;6.27;100.00;101258.88;106508;1254;62983;-84
2024/03/06 09:48:11;;;;;;;43.40;22.10;;;;;;;6.28;100.00;101261.41;106561;1251;62629;-87
2024/03/06 09:50:47;;;;;;;43.70;22.00;;;;;;;6.27;100.00;101263.98;106349;1254;77255;-86
2024/03/06 09:53:26;;;;;;;39.60;21.30;;;;;;;6.31;99.84;101264.45;106207;1251;69416;-87
2024/03/06 09:56:06;;;;;;;40.80;21.50;;;;;;;6.31;99.77;101260.48;106301;1254;72806;-87
2024/03/06 09:58:46;;;;;;;42.60;22.90;;;;;;;6.30;100.00;101262.55;106108;1259;62075;-85
2024/03/06 10:01:21;;;;;;;44.60;24.90;;;;;;;6.32;99.97;101264.06;106298;1254;61271;-88
2024/03/06 10:03:55;;;;;;;40.90;22.90;;;;;;;6.35;99.99;101261.73;106396;1256;76895;-87
2024/03/06 10:06:23;;;;;;;43.10;24.10;;;;;;;6.46;99.98;101262.67;106406;1257;71124;-86
2024/03/06 10:09:04;;;;;;;42.00;23.50;;;;;;;6.50;98.94;101262.63;106240;1253;75058;-88
2024/03/06 10:11:38;;;;;;;46.20;24.50;;;;;;;6.46;97.50;101263.82;107348;1251;61247;-86
2024/03/06 10:14:13;;;;;;;40.20;22.50;;;;;;;6.36;98.62;101267.14;107655;1254;61558;-87
2024/03/06 10:16:57;;;;;;;44.40;23.30;;;;;;;6.31;98.48;101267.88;106660;1254;75859;-87
2024/03/06 10:19:31;;;;;;;42.20;22.80;;;;;;;6.32;99.74;101264.15;106436;1256;69946;-85
2024/03/06 10:22:08;;;;;;;38.10;21.30;;;;;;;6.33;99.99;101260.46;106327;1260;75035;-88
2024/03/06 10:24:42;;;;;;;42.70;23.50;;;;;;;6.29;99.99;101260.39;106474;1256;61376;-85
2024/03/06 10:27:18;;;;;;;42.20;24.10;;;;;;;6.31;99.81;101263.42;107380;1251;62295;-86
2024/03/06 10:30:03;;;;;;;42.00;22.50;;;;;;;6.30;98.53;101259.99;106565;1251;75800;-88
2024/03/06 10:32:39;;;;;;;44.30;22.90;;;;;;;6.22;100.00;101262.20;106465;1251;69816;-85
2024/03/06 10:35:28;;;;;;;41.60;23.20;;;;;;;6.27;100.00;101258.45;106338;1257;73878;-85
2024/03/06 10:37:56;;;;;;;46.20;24.30;;;;;;;6.39;100.00;101257.56;106452;1254;61939;-88
2024/03/06 10:40:37;;;;;;;44.40;23.00;;;;;;;6.45;100.00;101257.83;106339;1257;61596;-85
2024/03/06 10:43:11;;;;;;;41.70;21.20;;;;;;;6.53;99.88;101264.08;106418;1254;75644;-86
2024/03/06 10:45:56;;;;;;;48.80;23.40;;;;;;;6.60;100.00;101259.67;106263;1256;69628;-86
2024/03/06 10:48:24;;;;;;;48.10;24.80;;;;;;;6.65;98.37;101260.02;106256;1254;75032;-85
2024/03/06 10:50:59;;;;;;;40.60;22.10;;;;;;;6.67;99.13;101257.95;106189;1254;61807;-85
2024/03/06 10:53:34;;;;;;;42.90;22.90;;;;;;;6.70;96.93;101259.98;106333;1253;61533;-88
2024/03/06 10:56:09;;;;;;;43.60;22.60;;;;;;;6.65;96.80;101259.35;106323;1256;75568;-88
2024/03/06 10:58:37;;;;;;;42.10;21.40;;;;;;;6.60;96.03;101260.80;106281;1256;70639;-85
2024/03/06 11:01:12;;;;;;;42.20;23.70;;;;;;;6.62;97.15;101265.87;106221;1256;73547;-86
2024/03/06 11:03:52;;;;;;;43.50;21.90;;;;;;;6.67;96.05;101264.83;106362;1255;61375;-88
2024/03/06 11:06:26;;;;;;;43.00;23.80;;;;;;;6.66;93.99;101267.05;106126;1260;61219;-86
2024/03/06 11:08:54;;;;;;;54.20;25.70;;;;;;;6.65;96.52;101262.77;106191;1259;76825;-85
2024/03/06 11:11:28;;;;;;;43.00;22.00;;;;;;;6.74;96.16;101264.31;106332;1257;68866;-87
2024/03/06 11:14:10;;;;;;;41.00;20.50;;;;;;;6.78;94.26;101261.89;106419;1252;73992;-87
2024/03/06 11:17:10;;;;;;;;;;;;;;;6.78;91.68;101263.05;106315;1254;61608;-86
2024/03/06 11:20:00;;;;;;;45.60;22.70;;;;;;;6.78;92.45;101265.60;106352;1254;61266;-85
2024/03/06 11:23:08;;;;;;;43.40;20.90;;;;;;;6.79;93.71;101265.29;106143;1257;76763;-84
2024/03/06 11:26:00;;;;;;;39.30;21.80;;;;;;;6.77;93.39;101264.88;106168;1252;68678;-87
2024/03/06 11:28:50;;;;;;;47.20;23.10;;;;;;;6.73;93.82;101264.48;106328;1256;73771;-85